KTVF

Thief River Falls Regional Airport

Thief River Falls, Minnesota, USA
KTVF 171721Z 1718/1818 27009KT P6SM SKC FM181200 23008KT P6SM BKN200 FM181700 25005KT P6SM BKN110
Issued Valid From Valid To
Nov-17 @ 17:21 UTC
(4 hours ago)
Nov-17 @ 18:00 UTC
(4 hours ago)
Nov-18 @ 18:00 UTC
(in 20 hours)
Nov-17 @ 18:00 to Nov-18 @ 12:00
KTVF 171721Z 1718/1818 27009KT P6SM SKC
Wind Visibility Clouds
270° at 9 knots Greater than 6 miles
  • Clear skies
From Nov-18 @ 12:00 to Nov-18 @ 17:00
FM181200 23008KT P6SM BKN200
Wind Visibility Clouds
230° at 8 knots Greater than 6 miles
  • Broken at 20,000' AGL
From Nov-18 @ 17:00 to Nov-18 @ 18:00
FM181700 25005KT P6SM BKN110
Wind Visibility Clouds
250° at 5 knots Greater than 6 miles
  • Broken at 11,000' AGL
KTVF 171721Z 1718/1818 27009KT P6SM SKC FM181200 23008KT P6SM BKN200 FM181700 25005KT P6SM BKN110
Issued Nov-17 @ 17:21 UTC
(4 hours ago)
Valid From Nov-17 @ 18:00 UTC
(4 hours ago)
Valid To Nov-18 @ 18:00 UTC
(in 20 hours)
Nov-17 @ 18:00 - Nov-18 @ 12:00
Wind Visibility
270° at 9 knots Greater than 6 miles
Clouds
  • Clear skies
From Nov-18 @ 12:00 - Nov-18 @ 17:00
Wind Visibility
230° at 8 knots Greater than 6 miles
Clouds
  • Broken at 20,000' AGL
From Nov-18 @ 17:00 - Nov-18 @ 18:00
Wind Visibility
250° at 5 knots Greater than 6 miles
Clouds
  • Broken at 11,000' AGL